Time;durP1;ratioP1;P1;durP2;ratioP2;P2;SDS_P1;SDS_P2;PMS_P1;PMS_P2;Temp;Humidity;BMP_temperature;BMP_pressure;BME280_temperature;BME280_humidity;BME280_pressure;Samples;Min_cycle;Max_cycle;Signal;HPM_P1;HPM_P2
2023/01/03 00:00:31;;;;;;;;;48.50;39.25;;;;;8.06;82.07;102241.41;4975912;28;45442;-64
2023/01/03 00:02:57;;;;;;;;;48.25;33.25;;;;;8.07;82.01;102246.69;4972668;28;45701;-66
2023/01/03 00:05:22;;;;;;;;;41.75;34.00;;;;;7.98;82.38;102235.91;4958204;27;45432;-67
2023/01/03 00:07:48;;;;;;;;;41.00;32.75;;;;;8.01;82.32;102248.19;4989730;27;45299;-65
2023/01/03 00:10:13;;;;;;;;;35.50;30.50;;;;;8.04;82.10;102243.97;4976620;27;45333;-66
2023/01/03 00:12:39;;;;;;;;;32.50;29.25;;;;;8.01;81.83;102230.81;4994441;27;45443;-65
2023/01/03 00:15:05;;;;;;;;;36.75;31.75;;;;;8.12;82.09;102264.25;4995847;27;45347;-65
2023/01/03 00:17:30;;;;;;;;;41.25;32.75;;;;;8.05;82.18;102263.13;4996829;27;45565;-66
2023/01/03 00:19:56;;;;;;;;;44.75;36.25;;;;;8.06;82.18;102257.06;4996396;27;45385;-65
2023/01/03 00:22:22;;;;;;;;;37.25;33.75;;;;;7.98;82.16;102242.88;4996013;27;45622;-66
2023/01/03 00:24:48;;;;;;;;;9.75;8.00;;;;;8.01;82.25;102256.88;4995193;27;45407;-65
2023/01/03 00:27:15;;;;;;;;;31.25;30.25;;;;;8.01;82.25;102266.44;4988891;27;47014;-65
2023/01/03 00:29:41;;;;;;;;;34.75;33.50;;;;;7.87;82.34;102237.22;4990775;27;45503;-64
2023/01/03 00:32:07;;;;;;;;;43.25;33.50;;;;;7.95;82.07;102247.94;4995290;27;45420;-65
2023/01/03 00:34:33;;;;;;;;;47.25;36.75;;;;;7.96;82.21;102245.41;4993410;27;45478;-65
2023/01/03 00:36:59;;;;;;;;;36.50;28.00;;;;;7.71;82.33;102212.31;4991711;27;45430;-64
2023/01/03 00:39:25;;;;;;;;;31.50;27.75;;;;;7.85;82.91;102228.47;4993311;27;45494;-68
2023/01/03 00:41:51;;;;;;;;;28.25;28.00;;;;;8.03;82.26;102244.78;4996335;27;45513;-65
2023/01/03 00:44:17;;;;;;;;;33.25;28.75;;;;;8.07;82.24;102238.88;4996640;27;45409;-65
2023/01/03 00:46:43;;;;;;;;;28.00;23.50;;;;;8.08;81.77;102244.97;4990249;27;45404;-65
2023/01/03 00:49:10;;;;;;;;;25.75;23.75;;;;;8.06;81.58;102242.28;4988171;27;45339;-64
2023/01/03 00:51:38;;;;;;;;;31.25;28.50;;;;;8.15;81.88;102246.97;4980783;27;45493;-65
2023/01/03 00:54:06;;;;;;;;;35.50;28.25;;;;;8.16;81.72;102246.16;4985689;27;45370;-65
2023/01/03 00:56:37;;;;;;;;;29.25;24.75;;;;;8.13;81.28;102235.56;4982665;27;46490;-64
2023/01/03 00:59:04;;;;;;;;;26.25;24.00;;;;;8.15;81.57;102246.97;4994120;27;45519;-64
2023/01/03 01:01:34;;;;;;;;;27.50;23.25;;;;;8.10;81.45;102245.91;4992442;27;45388;-66
2023/01/03 01:04:09;;;;;;;;;33.25;27.25;;;;;8.14;81.42;102244.28;4991579;27;45676;-66
2023/01/03 01:06:38;;;;;;;;;22.00;19.00;;;;;8.10;81.15;102234.59;4992011;27;45428;-64
2023/01/03 01:09:06;;;;;;;;;28.25;24.25;;;;;8.07;81.46;102231.03;4991738;27;45396;-64
2023/01/03 01:11:32;;;;;;;;;18.25;15.25;;;;;8.20;81.42;102245.41;4991705;27;45448;-65
2023/01/03 01:13:58;;;;;;;;;18.25;11.50;;;;;8.14;81.42;102226.03;4973960;28;45898;-65
2023/01/03 01:16:26;;;;;;;;;22.00;16.25;;;;;8.20;81.13;102227.13;4989676;27;46739;-65
2023/01/03 01:18:53;;;;;;;;;23.00;17.75;;;;;8.27;80.98;102241.28;4992995;27;45554;-66
2023/01/03 01:21:25;;;;;;;;;17.75;13.75;;;;;8.35;80.83;102245.09;4991720;27;45330;-65
2023/01/03 01:23:51;;;;;;;;;21.50;17.50;;;;;8.36;80.63;102244.22;4990712;27;45403;-65
2023/01/03 01:26:20;;;;;;;;;19.00;17.25;;;;;8.38;80.35;102242.56;4994794;27;45308;-65
2023/01/03 01:28:47;;;;;;;;;16.50;14.25;;;;;8.35;80.58;102242.47;4995783;27;45566;-64
2023/01/03 01:31:15;;;;;;;;;16.75;13.50;;;;;8.36;80.27;102245.97;4992071;27;45521;-64
2023/01/03 01:33:42;;;;;;;;;12.50;12.50;;;;;8.27;80.01;102225.63;4991992;27;45395;-65
2023/01/03 01:36:11;;;;;;;;;16.25;14.00;;;;;8.37;80.10;102253.81;4973793;27;47843;-65
2023/01/03 01:38:37;;;;;;;;;16.25;15.50;;;;;8.26;80.50;102248.25;4990441;27;45929;-64
2023/01/03 01:41:02;;;;;;;;;16.00;13.50;;;;;8.29;80.31;102255.28;4994912;27;45443;-64
2023/01/03 01:46:24;;;;;;;;;18.50;16.00;;;;;8.27;80.16;102246.50;4991987;27;45661;-64
2023/01/03 01:48:55;;;;;;;;;18.50;17.50;;;;;8.29;80.03;102253.56;4989818;27;45561;-64
2023/01/03 01:51:23;;;;;;;;;14.25;11.25;;;;;8.37;80.16;102263.38;4992048;27;45423;-64
2023/01/03 01:53:52;;;;;;;;;16.00;13.00;;;;;8.10;80.22;102219.81;4994240;27;45473;-64
2023/01/03 01:56:24;;;;;;;;;20.25;14.00;;;;;8.38;79.85;102260.84;4995471;27;45973;-64
2023/01/03 01:58:52;;;;;;;;;18.25;13.50;;;;;8.36;79.90;102259.91;4966772;28;45587;-65
2023/01/03 02:01:20;;;;;;;;;13.50;11.25;;;;;8.38;80.21;102266.06;4989756;27;45501;-64
2023/01/03 02:03:54;;;;;;;;;12.75;10.25;;;;;8.38;80.13;102266.06;4995462;27;45660;-65
2023/01/03 02:06:21;;;;;;;;;13.75;11.25;;;;;8.45;79.85;102272.44;4976892;28;45743;-64
2023/01/03 02:08:47;;;;;;;;;18.75;14.50;;;;;8.53;79.65;102272.69;4977496;27;45492;-65
2023/01/03 02:11:22;;;;;;;;;15.75;11.00;;;;;8.53;79.64;102277.91;4991621;27;45447;-64
2023/01/03 02:14:25;;;;;;;;;13.00;12.25;;;;;8.53;79.54;102273.56;4991449;27;45527;-64
2023/01/03 02:17:02;;;;;;;;;15.75;12.50;;;;;8.53;79.70;102278.78;4989356;27;46345;-65
2023/01/03 02:19:36;;;;;;;;;14.50;12.25;;;;;8.54;79.74;102277.06;4989588;27;45867;-65
2023/01/03 02:22:14;;;;;;;;;11.75;11.25;;;;;8.54;79.39;102274.47;4991124;27;45477;-63
2023/01/03 02:25:01;;;;;;;;;12.25;11.50;;;;;8.47;79.58;102276.88;4979096;27;45440;-64
2023/01/03 02:27:47;;;;;;;;;9.50;9.50;;;;;8.46;79.92;102279.41;4995164;27;45504;-66
2023/01/03 02:30:12;;;;;;;;;16.00;14.50;;;;;8.45;79.57;102280.28;4995137;27;45385;-65
2023/01/03 02:32:49;;;;;;;;;13.50;11.50;;;;;8.36;79.69;102265.13;4994720;27;45346;-65
2023/01/03 02:35:36;;;;;;;;;12.25;9.75;;;;;8.36;79.05;102265.13;4991397;27;45493;-64
2023/01/03 02:38:17;;;;;;;;;17.00;14.00;;;;;8.44;79.83;102289.78;4990681;27;46697;-65
2023/01/03 02:41:13;;;;;;;;;16.00;12.25;;;;;8.44;79.43;102283.69;4990425;27;45547;-64
2023/01/03 02:43:45;;;;;;;;;14.75;9.75;;;;;8.47;79.57;102289.94;4984651;27;45883;-64
2023/01/03 02:46:30;;;;;;;;;12.75;12.50;;;;;8.47;79.56;102283.78;4976115;28;45548;-65
2023/01/03 02:49:19;;;;;;;;;13.25;12.25;;;;;8.43;79.55;102280.19;4977876;27;47476;-65
2023/01/03 02:51:52;;;;;;;;;13.50;12.00;;;;;8.47;79.41;102296.84;4990580;27;44671;-64
2023/01/03 02:54:37;;;;;;;;;16.75;14.75;;;;;8.37;79.39;102281.66;4990214;27;45569;-65
2023/01/03 02:57:30;;;;;;;;;17.25;12.25;;;;;8.40;79.42;102287.03;4991137;27;45686;-64
2023/01/03 03:00:07;;;;;;;;;12.00;9.50;;;;;8.36;79.56;102269.47;4992210;27;46202;-65
2023/01/03 03:02:35;;;;;;;;;17.25;14.25;;;;;8.34;79.35;102281.56;4990580;27;45882;-64
2023/01/03 03:05:07;;;;;;;;;15.00;12.75;;;;;8.21;79.72;102268.06;4990403;27;45310;-65
2023/01/03 03:07:39;;;;;;;;;15.75;15.00;;;;;8.24;80.13;102281.22;4990771;27;45464;-64
2023/01/03 03:13:13;;;;;;;;;12.25;10.75;;;;;8.23;79.96;102287.28;4993807;27;45434;-65
2023/01/03 03:15:47;;;;;;;;;12.25;9.50;;;;;8.25;80.49;102287.34;4976749;28;45460;-64
2023/01/03 03:18:25;;;;;;;;;12.25;12.00;;;;;8.29;79.97;102284.00;4993122;27;45424;-64
2023/01/03 03:26:37;;;;;;;;;14.25;11.25;;;;;8.24;79.45;102282.97;4992437;27;45439;-65
2023/01/03 03:29:09;;;;;;;;;14.75;13.25;;;;;8.12;79.94;102288.63;4989872;27;45333;-66
2023/01/03 03:31:42;;;;;;;;;17.75;13.50;;;;;7.99;80.26;102282.03;4989442;27;46112;-64
2023/01/03 03:34:29;;;;;;;;;14.50;14.00;;;;;7.96;80.90;102288.88;4989629;27;45535;-63
2023/01/03 03:37:08;;;;;;;;;18.00;16.75;;;;;8.02;80.74;102291.69;4992379;27;45518;-64
2023/01/03 03:45:40;;;;;;;;;15.25;13.50;;;;;7.85;81.37;102288.47;4989807;27;45693;-66
2023/01/03 03:48:12;;;;;;;;;13.50;12.50;;;;;7.88;81.56;102291.22;4980720;27;45354;-63
2023/01/03 03:50:51;;;;;;;;;13.00;13.00;;;;;7.83;81.69;102288.41;4993727;27;45587;-65
2023/01/03 03:53:22;;;;;;;;;16.75;14.00;;;;;7.68;81.38;102272.16;4996953;27;46203;-65
2023/01/03 03:56:00;;;;;;;;;16.50;15.75;;;;;7.77;82.08;102295.13;4996916;27;45291;-64
2023/01/03 03:58:33;;;;;;;;;13.25;13.25;;;;;7.82;81.71;102286.63;4997409;27;45366;-64
2023/01/03 04:01:01;;;;;;;;;20.00;17.50;;;;;7.89;81.52;102298.19;4996461;27;45433;-64
2023/01/03 04:03:29;;;;;;;;;15.50;13.00;;;;;7.87;81.12;102292.00;4991888;27;46481;-65
2023/01/03 04:06:00;;;;;;;;;14.25;13.75;;;;;7.94;81.21;102285.31;4994251;27;45476;-64
2023/01/03 04:08:26;;;;;;;;;15.00;13.50;;;;;8.04;80.65;102295.25;4979330;27;45360;-64
2023/01/03 04:11:04;;;;;;;;;19.50;17.00;;;;;8.08;80.17;102292.81;4997223;27;45389;-65
2023/01/03 04:13:34;;;;;;;;;15.75;13.00;;;;;7.99;80.76;102288.97;4994929;27;47148;-64
2023/01/03 04:16:00;;;;;;;;;13.75;13.50;;;;;8.01;80.82;102290.81;4992848;27;45948;-63
2023/01/03 04:18:26;;;;;;;;;17.00;12.25;;;;;8.06;80.63;102296.22;4994074;27;45847;-65
2023/01/03 04:20:51;;;;;;;;;16.25;11.50;;;;;8.06;80.74;102297.09;4994835;27;45795;-64
2023/01/03 04:23:17;;;;;;;;;22.00;16.50;;;;;7.97;80.67;102283.72;4992353;27;45828;-64
2023/01/03 04:25:42;;;;;;;;;21.50;17.25;;;;;7.99;80.92;102296.81;4990964;27;45447;-63
2023/01/03 04:28:08;;;;;;;;;17.00;11.75;;;;;7.95;80.87;102282.78;4975078;28;45437;-65
2023/01/03 04:30:34;;;;;;;;;9.00;8.50;;;;;8.05;80.80;102287.50;4992521;27;45899;-64
2023/01/03 04:33:03;;;;;;;;;13.50;13.50;;;;;8.10;80.20;102278.97;4992299;27;45473;-65
2023/01/03 04:35:30;;;;;;;;;14.00;11.75;;;;;8.20;80.49;102301.94;4992076;27;45571;-65
2023/01/03 04:37:56;;;;;;;;;15.00;11.50;;;;;8.26;80.40;102307.41;4992008;27;45536;-65
2023/01/03 04:40:21;;;;;;;;;14.25;8.75;;;;;8.43;80.75;102319.38;4995736;27;45389;-65
2023/01/03 04:45:31;;;;;;;;;15.00;10.00;;;;;8.53;79.63;102315.34;4994528;27;45856;-64
2023/01/03 04:47:56;;;;;;;;;14.00;10.25;;;;;8.58;79.46;102323.38;4992311;27;45609;-65
2023/01/03 04:50:22;;;;;;;;;10.25;9.00;;;;;8.61;79.89;102321.75;4992352;27;45596;-64
2023/01/03 04:52:48;;;;;;;;;10.00;8.50;;;;;8.64;79.92;102326.19;4992134;27;46404;-64
2023/01/03 04:55:13;;;;;;;;;9.00;9.00;;;;;8.58;80.17;102311.19;4995602;27;45411;-63
2023/01/03 04:57:39;;;;;;;;;10.50;8.25;;;;;8.66;79.68;102317.59;4991936;27;45418;-65
2023/01/03 05:00:05;;;;;;;;;10.25;6.75;;;;;8.65;79.75;102321.00;4992541;27;45459;-65
2023/01/03 05:02:31;;;;;;;;;10.25;8.50;;;;;8.72;79.35;102322.13;4990547;27;47271;-65
2023/01/03 05:04:56;;;;;;;;;10.00;8.75;;;;;8.76;79.17;102318.78;4991455;27;45640;-64
2023/01/03 05:07:22;;;;;;;;;9.00;9.00;;;;;8.88;79.54;102334.88;4993789;27;45755;-64
2023/01/03 05:09:47;;;;;;;;;9.00;6.25;;;;;8.89;79.40;102325.31;4992335;27;45504;-63
2023/01/03 05:12:13;;;;;;;;;5.25;5.00;;;;;8.97;79.13;102320.34;4992487;27;45719;-64
2023/01/03 05:14:40;;;;;;;;;12.25;7.25;;;;;9.01;78.60;102307.44;4974445;28;45820;-64
2023/01/03 05:17:07;;;;;;;;;10.75;5.75;;;;;9.15;78.57;102326.19;4991970;27;45327;-63
2023/01/03 05:19:33;;;;;;;;;6.75;6.00;;;;;9.22;78.47;102335.13;4991721;27;45635;-63
2023/01/03 05:27:26;;;;;;;;;7.25;5.00;;;;;9.28;77.97;102330.13;4993636;27;45301;-65
2023/01/03 05:29:54;;;;;;;;;11.50;9.50;;;;;9.34;77.68;102339.03;4996573;27;45512;-64
2023/01/03 05:32:19;;;;;;;;;8.75;8.50;;;;;9.17;77.33;102334.97;4995816;27;45335;-64
2023/01/03 05:34:45;;;;;;;;;4.50;4.50;;;;;9.14;78.14;102345.34;4991801;27;45508;-64
2023/01/03 05:37:11;;;;;;;;;5.25;5.25;;;;;9.19;78.20;102346.38;4991642;27;45743;-64
2023/01/03 05:39:36;;;;;;;;;7.25;6.25;;;;;9.08;77.91;102324.22;4991584;27;45472;-64
2023/01/03 05:42:02;;;;;;;;;9.00;4.50;;;;;9.23;77.47;102342.13;4991738;27;46089;-63
2023/01/03 05:44:32;;;;;;;;;10.50;8.25;;;;;9.27;77.61;102344.00;4974149;28;45394;-64
2023/01/03 05:47:01;;;;;;;;;12.25;8.25;;;;;9.10;77.19;102325.16;4990453;27;45759;-64
2023/01/03 05:49:26;;;;;;;;;9.75;6.50;;;;;9.05;77.79;102335.47;4991686;27;45821;-65
2023/01/03 05:51:52;;;;;;;;;8.00;4.50;;;;;9.11;77.54;102329.53;4991903;27;46020;-63
2023/01/03 05:54:19;;;;;;;;;6.00;5.75;;;;;9.10;77.46;102333.88;4991620;27;45489;-64
2023/01/03 05:56:45;;;;;;;;;3.50;3.50;;;;;9.10;77.54;102319.94;4976481;28;45460;-64
2023/01/03 05:59:11;;;;;;;;;6.00;3.25;;;;;9.12;77.56;102328.72;4995854;27;45486;-64
2023/01/03 06:01:37;;;;;;;;;7.25;4.00;;;;;9.19;77.56;102348.13;4995179;27;45560;-64
2023/01/03 06:04:03;;;;;;;;;8.50;3.50;;;;;9.10;77.62;102325.16;4995474;27;45582;-64
2023/01/03 06:06:28;;;;;;;;;6.50;4.75;;;;;9.20;77.49;102345.53;4978054;27;45382;-64
2023/01/03 06:08:54;;;;;;;;;7.00;5.50;;;;;9.13;77.33;102339.22;4993471;27;45408;-63
2023/01/03 06:11:20;;;;;;;;;7.00;7.00;;;;;9.17;77.28;102345.44;4990876;27;45748;-64
2023/01/03 06:13:46;;;;;;;;;12.00;6.00;;;;;9.05;76.79;102342.41;4991250;27;45599;-66
2023/01/03 06:18:59;;;;;;;;;7.25;5.00;;;;;9.14;77.00;102353.19;4992859;27;45478;-64
2023/01/03 06:21:25;;;;;;;;;6.25;4.75;;;;;9.16;77.42;102355.84;4989093;27;46834;-63
2023/01/03 06:23:51;;;;;;;;;9.00;8.25;;;;;9.13;77.17;102361.84;4993617;27;45347;-63
2023/01/03 06:26:19;;;;;;;;;9.50;9.00;;;;;8.92;77.53;102351.53;4990969;27;45535;-64
2023/01/03 06:28:44;;;;;;;;;9.75;8.25;;;;;8.90;77.69;102359.34;4990813;27;45473;-63
2023/01/03 06:31:11;;;;;;;;;7.75;7.50;;;;;8.90;77.41;102359.34;4990481;27;46025;-63
2023/01/03 06:33:37;;;;;;;;;6.50;5.00;;;;;8.99;77.45;102368.31;4993384;27;45457;-64
2023/01/03 06:36:08;;;;;;;;;6.25;5.00;;;;;9.05;77.22;102376.41;4989284;27;45849;-63
2023/01/03 06:38:34;;;;;;;;;7.75;7.75;;;;;9.00;77.44;102376.22;4993750;27;45548;-64
2023/01/03 06:41:00;;;;;;;;;10.00;8.00;;;;;8.89;77.78;102360.16;4956973;27;47446;-64
2023/01/03 06:43:26;;;;;;;;;10.50;7.50;;;;;8.97;77.46;102383.06;4989442;27;45402;-63
2023/01/03 06:54:12;;;;;;;;;3.50;3.50;;;;;8.99;77.08;102386.63;4991426;27;45406;-65
2023/01/03 06:56:38;;;;;;;;;6.00;4.25;;;;;9.00;77.07;102378.84;4992188;27;45486;-65
2023/01/03 06:59:04;;;;;;;;;5.75;4.25;;;;;9.09;77.24;102386.13;4995063;27;45548;-64
2023/01/03 07:01:29;;;;;;;;;5.00;5.00;;;;;9.12;77.22;102386.22;4994947;27;46190;-64
2023/01/03 07:03:55;;;;;;;;;7.00;4.75;;;;;9.14;76.95;102384.56;4995304;27;45358;-64
2023/01/03 07:06:20;;;;;;;;;9.25;7.75;;;;;9.15;76.86;102390.66;4990529;27;45405;-64
2023/01/03 07:08:46;;;;;;;;;7.00;7.00;;;;;9.01;77.07;102377.13;4991309;27;45657;-64
2023/01/03 07:11:11;;;;;;;;;9.00;5.00;;;;;9.03;77.50;102388.50;4994715;27;45587;-64
2023/01/03 07:16:21;;;;;;;;;9.00;7.25;;;;;9.03;76.97;102383.28;4994495;27;45468;-63
2023/01/03 07:18:47;;;;;;;;;9.50;6.50;;;;;9.01;77.33;102384.94;4990495;27;45471;-65
2023/01/03 07:21:12;;;;;;;;;11.25;9.00;;;;;9.02;77.32;102394.59;4992585;27;45812;-64
2023/01/03 07:23:38;;;;;;;;;8.00;7.00;;;;;9.05;77.33;102394.69;4992752;27;45451;-64
2023/01/03 07:26:05;;;;;;;;;9.00;8.75;;;;;8.91;77.41;102391.59;4993188;27;45456;-64
2023/01/03 07:28:30;;;;;;;;;10.75;9.50;;;;;8.95;77.77;102397.81;4992847;27;45635;-64
2023/01/03 07:31:01;;;;;;;;;9.25;5.50;;;;;9.01;77.79;102403.25;4992909;27;45462;-64
2023/01/03 07:33:27;;;;;;;;;9.50;7.25;;;;;8.98;77.93;102413.59;4975329;28;45816;-65
2023/01/03 07:36:01;;;;;;;;;7.00;5.00;;;;;8.98;78.07;102414.50;4997439;27;45503;-64
2023/01/03 07:38:26;;;;;;;;;15.50;9.75;;;;;8.82;77.91;102402.59;4995884;27;45419;-64
2023/01/03 07:40:56;;;;;;;;;17.50;11.25;;;;;8.82;78.64;102418.25;4993111;27;45439;-64
2023/01/03 07:43:37;;;;;;;;;16.25;11.00;;;;;8.79;78.96;102412.94;4996186;27;45441;-63
2023/01/03 07:46:05;;;;;;;;;12.25;10.00;;;;;8.83;78.89;102413.97;4997026;27;45452;-64
2023/01/03 07:48:31;;;;;;;;;14.00;9.25;;;;;8.82;78.68;102404.31;4993203;27;45476;-64
2023/01/03 07:50:57;;;;;;;;;12.00;11.75;;;;;8.90;78.25;102424.69;4993164;27;45705;-64
2023/01/03 07:53:23;;;;;;;;;9.50;8.75;;;;;8.97;78.42;102425.78;4992217;27;45389;-64
2023/01/03 07:55:49;;;;;;;;;11.00;8.25;;;;;8.98;78.13;102417.09;4993008;27;45353;-66
2023/01/03 07:58:15;;;;;;;;;11.00;10.25;;;;;8.82;78.76;102426.09;4978423;27;45530;-64
2023/01/03 08:00:41;;;;;;;;;14.75;10.25;;;;;8.80;78.80;102434.72;4996794;27;45913;-64
2023/01/03 08:03:08;;;;;;;;;11.25;8.25;;;;;8.72;78.67;102415.28;4994181;27;45872;-65
2023/01/03 08:05:34;;;;;;;;;14.00;7.75;;;;;8.90;78.97;102442.09;4974812;28;45820;-64
2023/01/03 08:08:01;;;;;;;;;8.25;5.75;;;;;8.98;78.91;102437.13;4995167;27;45321;-65
2023/01/03 08:13:16;;;;;;;;;12.75;7.75;;;;;9.13;77.84;102449.03;4996706;27;45616;-65
2023/01/03 08:15:56;;;;;;;;;10.50;10.00;;;;;9.10;78.00;102446.28;4997267;27;45336;-66
2023/01/03 08:18:27;;;;;;;;;17.25;14.25;;;;;8.98;78.30;102447.56;4996370;27;45522;-64
2023/01/03 08:20:55;;;;;;;;;18.50;15.75;;;;;8.90;78.52;102458.66;4993192;27;45531;-64
2023/01/03 08:23:24;;;;;;;;;18.50;14.25;;;;;8.91;78.98;102459.53;4986896;27;45799;-64
2023/01/03 08:25:51;;;;;;;;;19.00;11.50;;;;;8.90;78.66;102466.50;4979868;27;45356;-64
2023/01/03 08:28:17;;;;;;;;;19.25;14.25;;;;;8.89;78.72;102459.47;4996882;27;45520;-65
2023/01/03 08:30:48;;;;;;;;;13.75;11.50;;;;;8.83;78.81;102454.03;4996316;27;45603;-65
2023/01/03 08:33:17;;;;;;;;;17.25;14.25;;;;;8.89;78.66;102459.47;4995587;27;45431;-64
2023/01/03 08:35:49;;;;;;;;;20.00;13.00;;;;;8.85;78.62;102452.38;4995892;27;45492;-64
2023/01/03 08:38:25;;;;;;;;;9.00;9.00;;;;;8.86;78.63;102461.97;4992383;27;45494;-64
2023/01/03 08:40:52;;;;;;;;;17.50;14.25;;;;;8.80;78.49;102447.78;4992903;27;46216;-65
2023/01/03 08:43:18;;;;;;;;;15.50;10.75;;;;;8.93;78.77;102459.59;4993442;27;45519;-64
2023/01/03 08:45:47;;;;;;;;;22.00;16.25;;;;;8.79;78.73;102459.97;4992188;27;45504;-64
2023/01/03 08:48:13;;;;;;;;;14.75;12.00;;;;;8.74;78.85;102473.72;4992218;27;45776;-64
2023/01/03 08:50:40;;;;;;;;;12.50;11.75;;;;;8.75;79.20;102473.75;4991335;27;45954;-64
2023/01/03 08:53:06;;;;;;;;;18.50;12.75;;;;;8.84;78.81;102470.59;4992924;27;45303;-65
2023/01/03 08:55:32;;;;;;;;;17.50;12.00;;;;;8.89;78.32;102469.91;4995932;27;45493;-65
2023/01/03 08:57:59;;;;;;;;;18.00;10.75;;;;;8.80;77.98;102461.72;4996448;27;45397;-64
2023/01/03 09:00:25;;;;;;;;;12.00;9.00;;;;;8.81;78.04;102463.53;4994992;27;46708;-64
2023/01/03 09:02:51;;;;;;;;;13.75;10.50;;;;;8.80;78.10;102461.72;4990475;27;45567;-64
2023/01/03 09:05:16;;;;;;;;;12.00;10.00;;;;;8.68;77.68;102466.50;4991777;27;45547;-64
2023/01/03 09:07:42;;;;;;;;;16.75;13.75;;;;;8.54;78.18;102459.88;4975189;28;45484;-64
2023/01/03 09:10:09;;;;;;;;;12.50;10.00;;;;;8.40;78.67;102457.66;4993374;27;46264;-65
2023/01/03 09:12:34;;;;;;;;;14.75;9.50;;;;;8.57;78.77;102483.53;4995451;27;45403;-65
2023/01/03 09:15:00;;;;;;;;;18.25;15.25;;;;;8.51;78.55;102467.59;4995329;28;45251;-65
2023/01/03 09:17:25;;;;;;;;;13.75;12.75;;;;;8.46;78.65;102476.16;4996016;27;45474;-63
2023/01/03 09:19:51;;;;;;;;;16.25;10.75;;;;;8.45;78.65;102474.38;4991202;27;46920;-64
2023/01/03 09:22:17;;;;;;;;;14.00;11.75;;;;;8.39;79.07;102468.00;4991066;27;45552;-65
2023/01/03 09:24:42;;;;;;;;;15.25;12.00;;;;;8.38;79.18;102480.16;4986414;27;45630;-64
2023/01/03 09:27:08;;;;;;;;;16.25;14.25;;;;;8.31;80.06;102485.97;4994323;27;45501;-63
2023/01/03 09:29:33;;;;;;;;;14.25;9.50;;;;;8.33;79.77;102480.78;4992058;27;46008;-64
2023/01/03 09:32:02;;;;;;;;;13.75;11.00;;;;;8.52;79.38;102495.47;4990984;27;45487;-66
2023/01/03 09:34:28;;;;;;;;;16.00;11.00;;;;;8.62;78.73;102489.81;4974170;28;45419;-65
2023/01/03 09:36:53;;;;;;;;;12.00;11.25;;;;;8.69;78.76;102487.47;4994079;27;45905;-64
2023/01/03 09:39:19;;;;;;;;;8.00;7.50;;;;;8.76;78.39;102475.53;4990707;27;45938;-64
2023/01/03 09:43:11;;;;;;;;;8.50;6.25;;;;;8.76;77.75;102459.88;4993902;27;45452;-64
2023/01/03 09:44:31;;;;;;;;;12.50;9.25;;;;;8.85;77.22;102481.13;4994156;27;45406;-65
2023/01/03 09:46:57;;;;;;;;;9.75;8.25;;;;;8.74;77.54;102481.53;4977625;27;45632;-66
2023/01/03 09:49:22;;;;;;;;;11.00;10.75;;;;;8.86;77.52;102477.66;4977291;28;47876;-64
2023/01/03 10:06:09;;;;;;;;;15.50;10.75;;;;;9.24;75.92;102500.78;4991169;27;45484;-64
2023/01/03 10:08:50;;;;;;;;;18.50;14.50;;;;;9.15;76.33;102501.34;4973442;28;45491;-64
2023/01/03 10:11:43;;;;;;;;;9.50;8.25;;;;;9.10;76.31;102495.94;4973519;27;48108;-64
2023/01/03 10:14:32;;;;;;;;;13.00;11.25;;;;;9.04;76.85;102479.16;4995247;27;45413;-63
2023/01/03 10:16:57;;;;;;;;;14.75;10.75;;;;;9.16;76.14;102504.84;4992639;27;45640;-65
2023/01/03 10:19:23;;;;;;;;;9.00;9.00;;;;;9.22;76.38;102498.13;4990968;27;45971;-65
2023/01/03 10:22:13;;;;;;;;;13.75;8.75;;;;;9.42;75.46;102492.69;4990803;27;45722;-65
2023/01/03 10:24:46;;;;;;;;;10.00;8.25;;;;;9.65;74.91;102509.19;4994334;27;45535;-64
2023/01/03 10:27:17;;;;;;;;;8.50;6.75;;;;;9.80;73.26;102511.41;4991323;27;45871;-63
2023/01/03 10:29:45;;;;;;;;;6.00;4.75;;;;;9.72;73.05;102517.28;4990138;27;45527;-64
2023/01/03 10:32:38;;;;;;;;;7.25;6.00;;;;;9.45;74.10;102506.78;4988997;27;46385;-63
2023/01/03 10:35:21;;;;;;;;;8.25;6.50;;;;;9.54;74.03;102514.94;4994826;27;45222;-63
2023/01/03 10:37:51;;;;;;;;;4.75;4.75;;;;;9.58;74.07;102515.94;4981720;27;45735;-62
2023/01/03 10:40:17;;;;;;;;;8.25;5.75;;;;;9.45;74.78;102505.91;4994599;27;45390;-62
2023/01/03 10:42:44;;;;;;;;;13.50;12.75;;;;;9.28;75.49;102506.19;4994811;27;46399;-63
2023/01/03 10:45:14;;;;;;;;;13.75;11.25;;;;;9.26;75.91;102517.44;4994892;27;45528;-64
2023/01/03 10:47:40;;;;;;;;;13.75;10.75;;;;;9.15;76.25;102510.91;4990956;27;45849;-63
2023/01/03 10:50:07;;;;;;;;;13.25;9.25;;;;;9.12;76.12;102503.84;4991329;27;45275;-63
2023/01/03 10:52:40;;;;;;;;;16.50;12.00;;;;;9.09;75.98;102511.59;4992281;27;45512;-63
2023/01/03 10:55:16;;;;;;;;;14.25;11.25;;;;;8.96;76.78;102502.41;4972930;28;45424;-63
2023/01/03 10:57:47;;;;;;;;;10.50;8.25;;;;;8.87;77.03;102505.59;4990601;27;45582;-63
2023/01/03 11:00:23;;;;;;;;;14.00;12.75;;;;;8.73;77.44;102511.97;4990523;27;45422;-63
2023/01/03 11:02:50;;;;;;;;;12.25;9.50;;;;;8.73;77.80;102505.88;4990851;27;46184;-63
2023/01/03 11:05:22;;;;;;;;;13.25;10.25;;;;;8.66;77.68;102507.34;4991771;27;45472;-64
2023/01/03 11:07:58;;;;;;;;;10.50;10.50;;;;;8.62;78.06;102502.88;4994431;27;45429;-63
2023/01/03 11:10:35;;;;;;;;;12.25;8.50;;;;;8.66;78.16;102500.44;4994670;27;45517;-63
2023/01/03 11:13:15;;;;;;;;;10.50;9.25;;;;;8.70;78.30;102498.81;4992523;28;46228;-63
2023/01/03 11:15:41;;;;;;;;;12.75;7.25;;;;;8.70;78.11;102501.41;4990559;27;45657;-63
2023/01/03 11:18:19;;;;;;;;;15.00;12.25;;;;;8.84;77.74;102501.94;4989929;27;45646;-63
2023/01/03 11:21:05;;;;;;;;;9.75;9.00;;;;;8.72;78.13;102484.09;4990982;27;45671;-63
2023/01/03 11:24:00;;;;;;;;;11.00;8.25;;;;;8.87;77.99;102489.91;4952097;28;45810;-64
2023/01/03 11:26:41;;;;;;;;;10.00;8.75;;;;;8.98;77.30;102492.91;4989746;27;45478;-64
2023/01/03 11:29:15;;;;;;;;;15.50;13.50;;;;;9.00;77.58;102487.72;4993330;27;45494;-63
2023/01/03 11:31:50;;;;;;;;;12.25;8.75;;;;;9.01;77.89;102490.38;4972508;28;45537;-64
2023/01/03 11:34:48;;;;;;;;;12.25;9.00;;;;;9.22;77.18;102487.66;4988213;27;46909;-63
2023/01/03 11:37:26;;;;;;;;;10.00;8.50;;;;;9.37;76.58;102465.50;4983729;28;45552;-64
2023/01/03 11:39:57;;;;;;;;;13.75;11.50;;;;;9.51;76.64;102482.56;4991112;27;45883;-64
2023/01/03 11:42:31;;;;;;;;;13.25;11.00;;;;;9.53;75.30;102470.41;4981954;27;45523;-64
2023/01/03 11:45:31;;;;;;;;;12.00;10.00;;;;;9.58;76.09;102474.06;4972065;28;46263;-64
2023/01/03 11:47:59;;;;;;;;;13.50;12.00;;;;;9.68;74.95;102472.66;4988083;27;45432;-63
2023/01/03 11:50:37;;;;;;;;;9.00;8.50;;;;;9.67;75.02;102479.63;4991111;27;45475;-63
2023/01/03 11:53:14;;;;;;;;;8.00;5.00;;;;;9.67;75.23;102477.00;4993359;27;45503;-64
2023/01/03 11:55:53;;;;;;;;;10.25;9.25;;;;;10.00;74.35;102481.56;4991443;27;45773;-64
2023/01/03 11:58:46;;;;;;;;;10.00;9.25;;;;;10.00;74.40;102473.72;4989960;27;45483;-63
2023/01/03 12:01:27;;;;;;;;;13.50;12.00;;;;;9.97;73.42;102456.19;4973965;28;45734;-63
2023/01/03 12:04:01;;;;;;;;;7.75;7.50;;;;;10.09;73.42;102462.66;4989488;28;45445;-63
2023/01/03 12:07:02;;;;;;;;;10.50;8.00;;;;;10.12;73.33;102462.75;4988811;27;47400;-63
2023/01/03 12:09:39;;;;;;;;;10.75;8.00;;;;;10.13;72.89;102460.19;4994913;27;45382;-63
2023/01/03 12:12:42;;;;;;;;;11.00;6.75;;;;;9.97;73.75;102455.31;4992223;27;45483;-62
2023/01/03 12:15:20;;;;;;;;;8.50;7.25;;;;;9.85;73.95;102455.81;4993505;27;45484;-63
2023/01/03 12:17:53;;;;;;;;;13.00;9.00;;;;;9.73;74.60;102439.72;4995046;27;46531;-62
2023/01/03 12:20:23;;;;;;;;;9.00;9.00;;;;;9.76;74.45;102445.91;4974540;27;45414;-63
2023/01/03 12:23:24;;;;;;;;;9.25;9.25;;;;;9.76;75.15;102445.03;4992718;27;45529;-62
2023/01/03 12:25:56;;;;;;;;;9.00;8.50;;;;;9.87;75.49;102441.03;5014555;27;45713;-63
2023/01/03 12:28:37;;;;;;;;;5.50;5.25;;;;;9.91;74.60;102423.69;4995081;27;45689;-64
2023/01/03 12:31:07;;;;;;;;;8.25;7.50;;;;;9.97;74.45;102434.38;4996922;27;45246;-63
2023/01/03 12:33:45;;;;;;;;;12.00;11.00;;;;;10.09;74.13;102442.59;4992806;27;45552;-62